sensor_id;sensor_type;location;lat;lon;timestamp;P1;durP1;ratioP1;P2;durP2;ratioP2
57341;SDS011;43175;51.002;18.316;2023-04-03T00:01:12;13.50;;;4.40;;
57341;SDS011;43175;51.002;18.316;2023-04-03T00:03:38;16.30;;;3.90;;
57341;SDS011;43175;51.002;18.316;2023-04-03T00:06:04;11.50;;;3.80;;
57341;SDS011;43175;51.002;18.316;2023-04-03T00:08:32;12.00;;;3.40;;
57341;SDS011;43175;51.002;18.316;2023-04-03T00:10:57;10.90;;;3.40;;
57341;SDS011;43175;51.002;18.316;2023-04-03T00:13:23;14.20;;;3.70;;
57341;SDS011;43175;51.002;18.316;2023-04-03T00:15:50;12.60;;;3.70;;
57341;SDS011;43175;51.002;18.316;2023-04-03T00:18:16;12.80;;;3.70;;
57341;SDS011;43175;51.002;18.316;2023-04-03T00:20:42;15.90;;;3.60;;
57341;SDS011;43175;51.002;18.316;2023-04-03T00:23:07;13.30;;;3.40;;
57341;SDS011;43175;51.002;18.316;2023-04-03T00:25:33;11.00;;;3.20;;
57341;SDS011;43175;51.002;18.316;2023-04-03T00:27:59;13.80;;;3.60;;
57341;SDS011;43175;51.002;18.316;2023-04-03T00:30:25;11.20;;;3.30;;
57341;SDS011;43175;51.002;18.316;2023-04-03T00:32:51;13.40;;;3.70;;
57341;SDS011;43175;51.002;18.316;2023-04-03T00:35:18;10.50;;;3.30;;
57341;SDS011;43175;51.002;18.316;2023-04-03T00:37:45;15.20;;;3.40;;
57341;SDS011;43175;51.002;18.316;2023-04-03T00:40:12;12.10;;;3.40;;
57341;SDS011;43175;51.002;18.316;2023-04-03T00:42:39;11.90;;;3.90;;
57341;SDS011;43175;51.002;18.316;2023-04-03T00:50:14;13.70;;;3.60;;
57341;SDS011;43175;51.002;18.316;2023-04-03T00:52:40;12.80;;;3.70;;
57341;SDS011;43175;51.002;18.316;2023-04-03T00:55:07;12.00;;;3.50;;
57341;SDS011;43175;51.002;18.316;2023-04-03T00:57:34;11.40;;;3.60;;
57341;SDS011;43175;51.002;18.316;2023-04-03T01:00:10;13.20;;;3.40;;
57341;SDS011;43175;51.002;18.316;2023-04-03T01:02:38;13.20;;;3.90;;
57341;SDS011;43175;51.002;18.316;2023-04-03T01:05:06;13.80;;;3.70;;
57341;SDS011;43175;51.002;18.316;2023-04-03T01:07:32;12.50;;;3.90;;
57341;SDS011;43175;51.002;18.316;2023-04-03T01:10:00;13.60;;;3.80;;
57341;SDS011;43175;51.002;18.316;2023-04-03T01:12:35;11.50;;;3.80;;
57341;SDS011;43175;51.002;18.316;2023-04-03T01:15:06;12.00;;;3.80;;
57341;SDS011;43175;51.002;18.316;2023-04-03T01:17:35;12.20;;;4.10;;
57341;SDS011;43175;51.002;18.316;2023-04-03T01:25:40;12.30;;;3.80;;
57341;SDS011;43175;51.002;18.316;2023-04-03T01:28:15;14.00;;;4.30;;
57341;SDS011;43175;51.002;18.316;2023-04-03T01:30:50;15.40;;;3.90;;
57341;SDS011;43175;51.002;18.316;2023-04-03T01:33:37;15.90;;;4.00;;
57341;SDS011;43175;51.002;18.316;2023-04-03T01:36:03;13.80;;;4.00;;
57341;SDS011;43175;51.002;18.316;2023-04-03T01:38:29;14.30;;;4.80;;
57341;SDS011;43175;51.002;18.316;2023-04-03T01:40:55;12.90;;;4.30;;
57341;SDS011;43175;51.002;18.316;2023-04-03T01:43:20;14.60;;;4.00;;
57341;SDS011;43175;51.002;18.316;2023-04-03T01:45:45;15.40;;;4.20;;
57341;SDS011;43175;51.002;18.316;2023-04-03T01:48:12;12.50;;;4.30;;
57341;SDS011;43175;51.002;18.316;2023-04-03T01:50:38;15.60;;;4.30;;
57341;SDS011;43175;51.002;18.316;2023-04-03T01:53:04;18.50;;;4.30;;
57341;SDS011;43175;51.002;18.316;2023-04-03T01:55:30;14.30;;;4.10;;
57341;SDS011;43175;51.002;18.316;2023-04-03T01:57:55;13.60;;;4.80;;
57341;SDS011;43175;51.002;18.316;2023-04-03T02:00:21;14.90;;;4.70;;
57341;SDS011;43175;51.002;18.316;2023-04-03T02:02:47;16.20;;;4.60;;
57341;SDS011;43175;51.002;18.316;2023-04-03T02:05:13;16.40;;;4.60;;
57341;SDS011;43175;51.002;18.316;2023-04-03T02:07:38;15.80;;;4.50;;
57341;SDS011;43175;51.002;18.316;2023-04-03T02:10:04;11.60;;;4.40;;
57341;SDS011;43175;51.002;18.316;2023-04-03T02:12:30;14.50;;;4.60;;
57341;SDS011;43175;51.002;18.316;2023-04-03T02:14:56;12.60;;;4.40;;
57341;SDS011;43175;51.002;18.316;2023-04-03T02:17:21;14.80;;;4.80;;
57341;SDS011;43175;51.002;18.316;2023-04-03T02:19:49;14.80;;;5.00;;
57341;SDS011;43175;51.002;18.316;2023-04-03T02:22:15;16.40;;;4.80;;
57341;SDS011;43175;51.002;18.316;2023-04-03T02:24:41;15.00;;;4.80;;
57341;SDS011;43175;51.002;18.316;2023-04-03T02:27:06;17.60;;;5.50;;
57341;SDS011;43175;51.002;18.316;2023-04-03T02:29:32;14.40;;;4.90;;
57341;SDS011;43175;51.002;18.316;2023-04-03T02:31:58;15.10;;;4.90;;
57341;SDS011;43175;51.002;18.316;2023-04-03T02:34:23;16.90;;;4.50;;
57341;SDS011;43175;51.002;18.316;2023-04-03T02:36:49;13.80;;;4.70;;
57341;SDS011;43175;51.002;18.316;2023-04-03T02:39:14;17.50;;;5.40;;
57341;SDS011;43175;51.002;18.316;2023-04-03T02:41:41;13.90;;;4.40;;
57341;SDS011;43175;51.002;18.316;2023-04-03T02:44:06;15.10;;;4.70;;
57341;SDS011;43175;51.002;18.316;2023-04-03T02:46:34;15.10;;;5.10;;
57341;SDS011;43175;51.002;18.316;2023-04-03T02:48:59;12.70;;;5.00;;
57341;SDS011;43175;51.002;18.316;2023-04-03T02:51:25;15.20;;;5.00;;
57341;SDS011;43175;51.002;18.316;2023-04-03T02:53:50;17.70;;;4.70;;
57341;SDS011;43175;51.002;18.316;2023-04-03T02:56:16;16.90;;;4.80;;
57341;SDS011;43175;51.002;18.316;2023-04-03T02:58:43;13.70;;;4.90;;
57341;SDS011;43175;51.002;18.316;2023-04-03T03:01:10;14.90;;;5.00;;
57341;SDS011;43175;51.002;18.316;2023-04-03T03:03:35;16.10;;;5.00;;
57341;SDS011;43175;51.002;18.316;2023-04-03T03:06:05;18.70;;;5.30;;
57341;SDS011;43175;51.002;18.316;2023-04-03T03:08:31;15.90;;;4.90;;
57341;SDS011;43175;51.002;18.316;2023-04-03T03:10:57;17.50;;;5.50;;
57341;SDS011;43175;51.002;18.316;2023-04-03T03:13:23;17.00;;;5.60;;
57341;SDS011;43175;51.002;18.316;2023-04-03T03:15:49;17.50;;;5.60;;
57341;SDS011;43175;51.002;18.316;2023-04-03T03:18:15;19.30;;;5.30;;
57341;SDS011;43175;51.002;18.316;2023-04-03T03:20:40;16.90;;;5.80;;
57341;SDS011;43175;51.002;18.316;2023-04-03T03:23:06;15.50;;;5.50;;
57341;SDS011;43175;51.002;18.316;2023-04-03T03:25:31;15.80;;;4.90;;
57341;SDS011;43175;51.002;18.316;2023-04-03T03:27:57;17.00;;;5.40;;
57341;SDS011;43175;51.002;18.316;2023-04-03T03:30:22;15.10;;;5.50;;
57341;SDS011;43175;51.002;18.316;2023-04-03T03:32:48;17.70;;;5.20;;
57341;SDS011;43175;51.002;18.316;2023-04-03T03:35:14;15.90;;;5.50;;
57341;SDS011;43175;51.002;18.316;2023-04-03T03:37:40;15.80;;;5.50;;
57341;SDS011;43175;51.002;18.316;2023-04-03T03:40:06;16.50;;;5.70;;
57341;SDS011;43175;51.002;18.316;2023-04-03T03:42:32;14.10;;;5.60;;
57341;SDS011;43175;51.002;18.316;2023-04-03T03:44:57;17.90;;;6.30;;
57341;SDS011;43175;51.002;18.316;2023-04-03T03:47:22;19.40;;;5.20;;
57341;SDS011;43175;51.002;18.316;2023-04-03T03:49:49;16.50;;;6.30;;
57341;SDS011;43175;51.002;18.316;2023-04-03T03:52:15;18.80;;;6.50;;
57341;SDS011;43175;51.002;18.316;2023-04-03T03:54:40;16.50;;;5.90;;
57341;SDS011;43175;51.002;18.316;2023-04-03T03:57:06;19.00;;;6.30;;
57341;SDS011;43175;51.002;18.316;2023-04-03T03:59:31;18.70;;;6.60;;
57341;SDS011;43175;51.002;18.316;2023-04-03T04:01:57;19.50;;;6.90;;
57341;SDS011;43175;51.002;18.316;2023-04-03T04:04:23;32.60;;;10.10;;
57341;SDS011;43175;51.002;18.316;2023-04-03T04:06:48;25.60;;;8.40;;
57341;SDS011;43175;51.002;18.316;2023-04-03T04:09:14;16.20;;;6.80;;
57341;SDS011;43175;51.002;18.316;2023-04-03T04:11:39;17.90;;;7.10;;
57341;SDS011;43175;51.002;18.316;2023-04-03T04:14:06;22.20;;;7.20;;
57341;SDS011;43175;51.002;18.316;2023-04-03T04:16:31;18.00;;;5.70;;
57341;SDS011;43175;51.002;18.316;2023-04-03T04:18:57;21.30;;;7.20;;
57341;SDS011;43175;51.002;18.316;2023-04-03T04:21:23;18.30;;;6.00;;
57341;SDS011;43175;51.002;18.316;2023-04-03T04:23:51;21.60;;;6.60;;
57341;SDS011;43175;51.002;18.316;2023-04-03T04:26:16;20.20;;;6.60;;
57341;SDS011;43175;51.002;18.316;2023-04-03T04:28:42;18.20;;;6.00;;
57341;SDS011;43175;51.002;18.316;2023-04-03T04:31:07;17.10;;;6.80;;
57341;SDS011;43175;51.002;18.316;2023-04-03T04:33:33;16.00;;;5.90;;
57341;SDS011;43175;51.002;18.316;2023-04-03T04:35:58;16.40;;;6.10;;
57341;SDS011;43175;51.002;18.316;2023-04-03T04:38:24;19.20;;;7.30;;
57341;SDS011;43175;51.002;18.316;2023-04-03T04:40:49;22.20;;;6.30;;
57341;SDS011;43175;51.002;18.316;2023-04-03T04:43:16;20.20;;;6.80;;
57341;SDS011;43175;51.002;18.316;2023-04-03T04:45:42;19.00;;;6.80;;
57341;SDS011;43175;51.002;18.316;2023-04-03T04:48:07;19.70;;;6.90;;
57341;SDS011;43175;51.002;18.316;2023-04-03T04:50:33;22.30;;;6.70;;
57341;SDS011;43175;51.002;18.316;2023-04-03T04:52:58;18.70;;;6.50;;
57341;SDS011;43175;51.002;18.316;2023-04-03T04:55:24;14.50;;;5.80;;
57341;SDS011;43175;51.002;18.316;2023-04-03T04:57:49;21.10;;;6.50;;
57341;SDS011;43175;51.002;18.316;2023-04-03T05:00:15;23.10;;;7.20;;
57341;SDS011;43175;51.002;18.316;2023-04-03T05:02:41;19.50;;;7.10;;
57341;SDS011;43175;51.002;18.316;2023-04-03T05:05:07;17.60;;;6.90;;
57341;SDS011;43175;51.002;18.316;2023-04-03T05:07:33;15.40;;;6.20;;
57341;SDS011;43175;51.002;18.316;2023-04-03T05:09:58;22.70;;;6.90;;
57341;SDS011;43175;51.002;18.316;2023-04-03T05:12:24;16.40;;;6.00;;
57341;SDS011;43175;51.002;18.316;2023-04-03T05:14:49;22.20;;;7.50;;
57341;SDS011;43175;51.002;18.316;2023-04-03T05:17:15;16.70;;;6.00;;
57341;SDS011;43175;51.002;18.316;2023-04-03T05:19:40;17.70;;;6.80;;
57341;SDS011;43175;51.002;18.316;2023-04-03T05:22:06;17.10;;;5.80;;
57341;SDS011;43175;51.002;18.316;2023-04-03T05:24:32;20.60;;;7.40;;
57341;SDS011;43175;51.002;18.316;2023-04-03T05:26:58;15.90;;;6.20;;
57341;SDS011;43175;51.002;18.316;2023-04-03T05:29:24;18.40;;;6.40;;
57341;SDS011;43175;51.002;18.316;2023-04-03T05:31:50;17.50;;;5.70;;
57341;SDS011;43175;51.002;18.316;2023-04-03T05:34:16;19.50;;;6.60;;
57341;SDS011;43175;51.002;18.316;2023-04-03T05:36:41;16.20;;;6.40;;
57341;SDS011;43175;51.002;18.316;2023-04-03T05:39:07;20.40;;;6.50;;
57341;SDS011;43175;51.002;18.316;2023-04-03T05:41:33;19.50;;;6.80;;
57341;SDS011;43175;51.002;18.316;2023-04-03T05:43:59;18.20;;;6.20;;
57341;SDS011;43175;51.002;18.316;2023-04-03T05:46:24;19.20;;;6.20;;
57341;SDS011;43175;51.002;18.316;2023-04-03T05:48:49;14.50;;;5.90;;
57341;SDS011;43175;51.002;18.316;2023-04-03T05:51:16;17.10;;;5.80;;
57341;SDS011;43175;51.002;18.316;2023-04-03T05:53:44;19.00;;;6.30;;
57341;SDS011;43175;51.002;18.316;2023-04-03T05:56:11;16.10;;;5.80;;
57341;SDS011;43175;51.002;18.316;2023-04-03T05:58:36;16.70;;;6.10;;
57341;SDS011;43175;51.002;18.316;2023-04-03T06:01:03;16.90;;;5.90;;
57341;SDS011;43175;51.002;18.316;2023-04-03T06:03:28;14.20;;;5.40;;
57341;SDS011;43175;51.002;18.316;2023-04-03T06:05:54;16.60;;;5.90;;
57341;SDS011;43175;51.002;18.316;2023-04-03T06:08:20;16.70;;;6.50;;
57341;SDS011;43175;51.002;18.316;2023-04-03T06:10:45;15.60;;;5.70;;
57341;SDS011;43175;51.002;18.316;2023-04-03T06:13:11;16.10;;;6.00;;
57341;SDS011;43175;51.002;18.316;2023-04-03T06:15:37;19.30;;;6.20;;
57341;SDS011;43175;51.002;18.316;2023-04-03T06:18:04;16.60;;;5.60;;
57341;SDS011;43175;51.002;18.316;2023-04-03T06:20:31;14.90;;;5.20;;
57341;SDS011;43175;51.002;18.316;2023-04-03T06:22:56;17.10;;;5.80;;
57341;SDS011;43175;51.002;18.316;2023-04-03T06:25:22;16.10;;;5.60;;
57341;SDS011;43175;51.002;18.316;2023-04-03T06:27:48;16.20;;;5.20;;
57341;SDS011;43175;51.002;18.316;2023-04-03T06:30:13;14.70;;;5.50;;
57341;SDS011;43175;51.002;18.316;2023-04-03T06:32:40;12.00;;;4.70;;
57341;SDS011;43175;51.002;18.316;2023-04-03T06:35:05;15.00;;;4.70;;
57341;SDS011;43175;51.002;18.316;2023-04-03T06:37:32;14.10;;;4.80;;
57341;SDS011;43175;51.002;18.316;2023-04-03T06:39:58;13.20;;;4.40;;
57341;SDS011;43175;51.002;18.316;2023-04-03T06:42:25;14.20;;;4.50;;
57341;SDS011;43175;51.002;18.316;2023-04-03T06:44:51;14.50;;;4.40;;
57341;SDS011;43175;51.002;18.316;2023-04-03T06:47:17;12.30;;;4.40;;
57341;SDS011;43175;51.002;18.316;2023-04-03T06:49:43;11.70;;;4.20;;
57341;SDS011;43175;51.002;18.316;2023-04-03T06:52:09;14.00;;;4.40;;
57341;SDS011;43175;51.002;18.316;2023-04-03T06:54:37;11.60;;;4.10;;
57341;SDS011;43175;51.002;18.316;2023-04-03T06:57:03;13.60;;;4.30;;
57341;SDS011;43175;51.002;18.316;2023-04-03T06:59:29;12.10;;;3.90;;
57341;SDS011;43175;51.002;18.316;2023-04-03T07:01:54;12.90;;;4.10;;
57341;SDS011;43175;51.002;18.316;2023-04-03T07:04:20;13.30;;;4.00;;
57341;SDS011;43175;51.002;18.316;2023-04-03T07:06:46;10.80;;;4.00;;
57341;SDS011;43175;51.002;18.316;2023-04-03T07:09:12;14.80;;;4.40;;
57341;SDS011;43175;51.002;18.316;2023-04-03T07:11:39;11.60;;;4.00;;
57341;SDS011;43175;51.002;18.316;2023-04-03T07:14:04;13.10;;;5.00;;
57341;SDS011;43175;51.002;18.316;2023-04-03T07:16:31;12.40;;;4.40;;
57341;SDS011;43175;51.002;18.316;2023-04-03T07:18:57;10.00;;;3.70;;
57341;SDS011;43175;51.002;18.316;2023-04-03T07:21:23;15.50;;;4.40;;
57341;SDS011;43175;51.002;18.316;2023-04-03T07:23:49;12.90;;;4.20;;
57341;SDS011;43175;51.002;18.316;2023-04-03T07:26:15;12.10;;;4.30;;
57341;SDS011;43175;51.002;18.316;2023-04-03T07:28:40;10.80;;;4.10;;
57341;SDS011;43175;51.002;18.316;2023-04-03T07:31:07;11.80;;;4.00;;
57341;SDS011;43175;51.002;18.316;2023-04-03T07:33:42;12.60;;;4.20;;
57341;SDS011;43175;51.002;18.316;2023-04-03T07:36:08;11.40;;;4.10;;
57341;SDS011;43175;51.002;18.316;2023-04-03T07:38:35;13.20;;;3.90;;
57341;SDS011;43175;51.002;18.316;2023-04-03T07:41:01;10.90;;;3.90;;
57341;SDS011;43175;51.002;18.316;2023-04-03T07:43:26;11.40;;;3.80;;
57341;SDS011;43175;51.002;18.316;2023-04-03T07:45:52;13.70;;;4.90;;
57341;SDS011;43175;51.002;18.316;2023-04-03T07:48:22;12.00;;;3.50;;
57341;SDS011;43175;51.002;18.316;2023-04-03T07:50:49;10.90;;;3.60;;
57341;SDS011;43175;51.002;18.316;2023-04-03T07:53:14;10.60;;;3.70;;
57341;SDS011;43175;51.002;18.316;2023-04-03T07:55:40;14.60;;;4.10;;
57341;SDS011;43175;51.002;18.316;2023-04-03T07:58:14;11.00;;;3.80;;
57341;SDS011;43175;51.002;18.316;2023-04-03T08:00:42;14.60;;;4.60;;
57341;SDS011;43175;51.002;18.316;2023-04-03T08:03:08;12.30;;;3.80;;
57341;SDS011;43175;51.002;18.316;2023-04-03T08:05:37;14.20;;;3.90;;
57341;SDS011;43175;51.002;18.316;2023-04-03T08:08:04;10.50;;;3.50;;
57341;SDS011;43175;51.002;18.316;2023-04-03T08:10:30;10.00;;;2.90;;
57341;SDS011;43175;51.002;18.316;2023-04-03T08:12:56;9.20;;;3.10;;
57341;SDS011;43175;51.002;18.316;2023-04-03T08:15:22;10.00;;;3.20;;
57341;SDS011;43175;51.002;18.316;2023-04-03T08:17:47;10.40;;;3.30;;
57341;SDS011;43175;51.002;18.316;2023-04-03T08:20:13;10.20;;;3.10;;
57341;SDS011;43175;51.002;18.316;2023-04-03T08:22:38;10.10;;;2.80;;
57341;SDS011;43175;51.002;18.316;2023-04-03T08:25:04;9.80;;;2.50;;
57341;SDS011;43175;51.002;18.316;2023-04-03T08:27:30;8.90;;;2.70;;
57341;SDS011;43175;51.002;18.316;2023-04-03T08:29:56;8.20;;;2.80;;
57341;SDS011;43175;51.002;18.316;2023-04-03T08:32:22;9.00;;;2.60;;
57341;SDS011;43175;51.002;18.316;2023-04-03T08:34:48;8.60;;;2.30;;
57341;SDS011;43175;51.002;18.316;2023-04-03T08:37:14;11.70;;;3.10;;
57341;SDS011;43175;51.002;18.316;2023-04-03T08:39:41;8.70;;;3.00;;
57341;SDS011;43175;51.002;18.316;2023-04-03T08:42:14;7.50;;;2.40;;
57341;SDS011;43175;51.002;18.316;2023-04-03T08:44:47;8.50;;;2.50;;
57341;SDS011;43175;51.002;18.316;2023-04-03T08:47:39;8.50;;;2.40;;
57341;SDS011;43175;51.002;18.316;2023-04-03T08:50:21;10.00;;;2.50;;
57341;SDS011;43175;51.002;18.316;2023-04-03T08:52:57;10.10;;;2.90;;
57341;SDS011;43175;51.002;18.316;2023-04-03T08:55:34;10.30;;;2.80;;
57341;SDS011;43175;51.002;18.316;2023-04-03T08:58:12;9.80;;;2.70;;
57341;SDS011;43175;51.002;18.316;2023-04-03T09:00:49;9.00;;;2.60;;
57341;SDS011;43175;51.002;18.316;2023-04-03T09:03:17;9.10;;;2.80;;
57341;SDS011;43175;51.002;18.316;2023-04-03T09:05:46;9.00;;;2.70;;
57341;SDS011;43175;51.002;18.316;2023-04-03T09:08:29;9.70;;;2.90;;
57341;SDS011;43175;51.002;18.316;2023-04-03T09:11:04;11.00;;;2.80;;
57341;SDS011;43175;51.002;18.316;2023-04-03T09:16:19;10.30;;;2.80;;
57341;SDS011;43175;51.002;18.316;2023-04-03T09:18:48;9.70;;;2.90;;
57341;SDS011;43175;51.002;18.316;2023-04-03T09:21:26;9.20;;;2.90;;
57341;SDS011;43175;51.002;18.316;2023-04-03T09:23:58;8.80;;;2.60;;
57341;SDS011;43175;51.002;18.316;2023-04-03T09:26:36;9.90;;;3.10;;
57341;SDS011;43175;51.002;18.316;2023-04-03T09:29:10;10.80;;;2.90;;
57341;SDS011;43175;51.002;18.316;2023-04-03T09:31:43;10.40;;;3.30;;
57341;SDS011;43175;51.002;18.316;2023-04-03T09:34:17;11.00;;;3.00;;
57341;SDS011;43175;51.002;18.316;2023-04-03T09:36:48;9.10;;;3.00;;
57341;SDS011;43175;51.002;18.316;2023-04-03T09:39:19;9.60;;;3.00;;
57341;SDS011;43175;51.002;18.316;2023-04-03T09:42:00;11.30;;;3.10;;
57341;SDS011;43175;51.002;18.316;2023-04-03T09:44:38;9.00;;;2.90;;
57341;SDS011;43175;51.002;18.316;2023-04-03T09:47:17;11.80;;;3.00;;
57341;SDS011;43175;51.002;18.316;2023-04-03T09:49:51;9.30;;;2.80;;
57341;SDS011;43175;51.002;18.316;2023-04-03T09:52:24;9.10;;;2.90;;
57341;SDS011;43175;51.002;18.316;2023-04-03T09:54:51;10.80;;;3.10;;
57341;SDS011;43175;51.002;18.316;2023-04-03T09:57:17;10.60;;;3.00;;
57341;SDS011;43175;51.002;18.316;2023-04-03T10:00:00;11.30;;;3.00;;
57341;SDS011;43175;51.002;18.316;2023-04-03T10:05:26;10.30;;;3.30;;
57341;SDS011;43175;51.002;18.316;2023-04-03T10:07:52;10.90;;;3.30;;
57341;SDS011;43175;51.002;18.316;2023-04-03T10:10:38;11.40;;;3.30;;
57341;SDS011;43175;51.002;18.316;2023-04-03T10:13:06;10.50;;;3.10;;
57341;SDS011;43175;51.002;18.316;2023-04-03T10:15:36;9.40;;;3.20;;
57341;SDS011;43175;51.002;18.316;2023-04-03T10:25:58;10.00;;;3.20;;
57341;SDS011;43175;51.002;18.316;2023-04-03T10:28:48;10.20;;;3.80;;
57341;SDS011;43175;51.002;18.316;2023-04-03T10:31:25;11.20;;;3.20;;
57341;SDS011;43175;51.002;18.316;2023-04-03T10:36:48;9.40;;;3.30;;
57341;SDS011;43175;51.002;18.316;2023-04-03T10:39:24;11.80;;;3.50;;
57341;SDS011;43175;51.002;18.316;2023-04-03T10:41:59;11.20;;;3.30;;
57341;SDS011;43175;51.002;18.316;2023-04-03T10:44:41;9.60;;;3.20;;
57341;SDS011;43175;51.002;18.316;2023-04-03T10:49:53;12.00;;;3.50;;
57341;SDS011;43175;51.002;18.316;2023-04-03T10:58:06;10.50;;;3.50;;
57341;SDS011;43175;51.002;18.316;2023-04-03T11:00:39;10.40;;;3.60;;
57341;SDS011;43175;51.002;18.316;2023-04-03T11:03:15;10.60;;;3.50;;
57341;SDS011;43175;51.002;18.316;2023-04-03T11:05:47;9.10;;;3.60;;
57341;SDS011;43175;51.002;18.316;2023-04-03T11:11:33;11.40;;;3.30;;
57341;SDS011;43175;51.002;18.316;2023-04-03T11:14:01;9.60;;;3.20;;
57341;SDS011;43175;51.002;18.316;2023-04-03T11:16:31;11.50;;;3.40;;
57341;SDS011;43175;51.002;18.316;2023-04-03T11:19:01;10.50;;;3.60;;
57341;SDS011;43175;51.002;18.316;2023-04-03T11:21:35;12.30;;;3.70;;
57341;SDS011;43175;51.002;18.316;2023-04-03T11:24:05;10.30;;;3.90;;
57341;SDS011;43175;51.002;18.316;2023-04-03T11:26:35;11.10;;;3.70;;
57341;SDS011;43175;51.002;18.316;2023-04-03T11:29:08;9.10;;;3.10;;
57341;SDS011;43175;51.002;18.316;2023-04-03T11:36:59;9.70;;;3.30;;
57341;SDS011;43175;51.002;18.316;2023-04-03T11:39:28;11.00;;;3.50;;
57341;SDS011;43175;51.002;18.316;2023-04-03T11:41:55;9.30;;;3.20;;
57341;SDS011;43175;51.002;18.316;2023-04-03T11:44:42;11.60;;;3.50;;
57341;SDS011;43175;51.002;18.316;2023-04-03T11:47:09;9.50;;;3.10;;
57341;SDS011;43175;51.002;18.316;2023-04-03T11:49:51;10.60;;;3.00;;
57341;SDS011;43175;51.002;18.316;2023-04-03T12:05:48;9.50;;;3.50;;
57341;SDS011;43175;51.002;18.316;2023-04-03T12:08:38;11.10;;;3.30;;
57341;SDS011;43175;51.002;18.316;2023-04-03T12:16:20;9.90;;;3.30;;
57341;SDS011;43175;51.002;18.316;2023-04-03T12:21:22;9.00;;;3.30;;
57341;SDS011;43175;51.002;18.316;2023-04-03T12:23:59;9.90;;;3.30;;
57341;SDS011;43175;51.002;18.316;2023-04-03T12:26:51;13.10;;;3.80;;
57341;SDS011;43175;51.002;18.316;2023-04-03T12:37:08;9.70;;;3.00;;
57341;SDS011;43175;51.002;18.316;2023-04-03T12:47:37;9.80;;;3.40;;
57341;SDS011;43175;51.002;18.316;2023-04-03T12:50:16;10.10;;;3.10;;
57341;SDS011;43175;51.002;18.316;2023-04-03T12:52:45;11.00;;;3.30;;
57341;SDS011;43175;51.002;18.316;2023-04-03T12:55:19;11.60;;;3.60;;
57341;SDS011;43175;51.002;18.316;2023-04-03T12:57:46;9.70;;;3.30;;
57341;SDS011;43175;51.002;18.316;2023-04-03T13:00:18;9.80;;;3.60;;
57341;SDS011;43175;51.002;18.316;2023-04-03T13:02:51;9.20;;;3.30;;
57341;SDS011;43175;51.002;18.316;2023-04-03T13:05:18;10.70;;;3.40;;
57341;SDS011;43175;51.002;18.316;2023-04-03T13:07:44;9.50;;;3.30;;
57341;SDS011;43175;51.002;18.316;2023-04-03T13:10:16;9.70;;;3.20;;
57341;SDS011;43175;51.002;18.316;2023-04-03T13:12:46;10.80;;;3.10;;
57341;SDS011;43175;51.002;18.316;2023-04-03T13:15:14;9.40;;;3.40;;
57341;SDS011;43175;51.002;18.316;2023-04-03T13:17:45;11.00;;;3.20;;
57341;SDS011;43175;51.002;18.316;2023-04-03T13:20:12;10.80;;;3.50;;
57341;SDS011;43175;51.002;18.316;2023-04-03T13:22:59;11.60;;;3.70;;
57341;SDS011;43175;51.002;18.316;2023-04-03T13:25:30;9.10;;;3.30;;
57341;SDS011;43175;51.002;18.316;2023-04-03T13:27:57;11.90;;;3.90;;
57341;SDS011;43175;51.002;18.316;2023-04-03T13:30:27;10.70;;;4.10;;
57341;SDS011;43175;51.002;18.316;2023-04-03T13:32:58;10.40;;;3.20;;
57341;SDS011;43175;51.002;18.316;2023-04-03T13:35:30;10.20;;;3.50;;
57341;SDS011;43175;51.002;18.316;2023-04-03T13:38:05;9.30;;;3.20;;
57341;SDS011;43175;51.002;18.316;2023-04-03T13:40:53;11.10;;;3.80;;
57341;SDS011;43175;51.002;18.316;2023-04-03T13:43:21;9.90;;;3.30;;
57341;SDS011;43175;51.002;18.316;2023-04-03T13:48:54;10.70;;;3.10;;
57341;SDS011;43175;51.002;18.316;2023-04-03T13:51:22;11.90;;;3.80;;
57341;SDS011;43175;51.002;18.316;2023-04-03T13:53:55;11.90;;;3.50;;
57341;SDS011;43175;51.002;18.316;2023-04-03T14:01:43;10.60;;;3.20;;
57341;SDS011;43175;51.002;18.316;2023-04-03T14:04:16;9.60;;;3.00;;
57341;SDS011;43175;51.002;18.316;2023-04-03T14:06:44;9.80;;;3.00;;
57341;SDS011;43175;51.002;18.316;2023-04-03T14:09:11;8.80;;;2.90;;
57341;SDS011;43175;51.002;18.316;2023-04-03T14:11:37;9.90;;;3.20;;
57341;SDS011;43175;51.002;18.316;2023-04-03T14:14:11;9.20;;;2.90;;
57341;SDS011;43175;51.002;18.316;2023-04-03T14:16:40;11.90;;;3.50;;
57341;SDS011;43175;51.002;18.316;2023-04-03T14:19:11;9.60;;;3.50;;
57341;SDS011;43175;51.002;18.316;2023-04-03T14:21:43;9.10;;;3.00;;
57341;SDS011;43175;51.002;18.316;2023-04-03T14:24:08;11.20;;;3.40;;
57341;SDS011;43175;51.002;18.316;2023-04-03T14:26:34;9.60;;;3.20;;
57341;SDS011;43175;51.002;18.316;2023-04-03T14:29:00;10.20;;;3.20;;
57341;SDS011;43175;51.002;18.316;2023-04-03T14:31:25;9.90;;;3.00;;
57341;SDS011;43175;51.002;18.316;2023-04-03T14:33:51;9.30;;;3.20;;
57341;SDS011;43175;51.002;18.316;2023-04-03T14:36:18;12.20;;;4.00;;
57341;SDS011;43175;51.002;18.316;2023-04-03T14:38:50;11.50;;;3.30;;
57341;SDS011;43175;51.002;18.316;2023-04-03T14:41:17;9.50;;;3.30;;
57341;SDS011;43175;51.002;18.316;2023-04-03T14:43:44;12.00;;;3.50;;
57341;SDS011;43175;51.002;18.316;2023-04-03T14:46:17;9.50;;;3.00;;
57341;SDS011;43175;51.002;18.316;2023-04-03T14:48:47;9.60;;;3.20;;
57341;SDS011;43175;51.002;18.316;2023-04-03T14:51:14;10.50;;;3.40;;
57341;SDS011;43175;51.002;18.316;2023-04-03T14:53:41;9.20;;;3.20;;
57341;SDS011;43175;51.002;18.316;2023-04-03T14:56:14;10.30;;;3.20;;
57341;SDS011;43175;51.002;18.316;2023-04-03T14:58:43;11.10;;;3.10;;
57341;SDS011;43175;51.002;18.316;2023-04-03T15:01:09;9.80;;;3.20;;
57341;SDS011;43175;51.002;18.316;2023-04-03T15:03:37;10.50;;;3.10;;
57341;SDS011;43175;51.002;18.316;2023-04-03T15:06:03;9.40;;;3.30;;
57341;SDS011;43175;51.002;18.316;2023-04-03T15:08:28;9.60;;;3.20;;
57341;SDS011;43175;51.002;18.316;2023-04-03T15:10:54;9.20;;;3.10;;
57341;SDS011;43175;51.002;18.316;2023-04-03T15:13:22;10.60;;;2.90;;
57341;SDS011;43175;51.002;18.316;2023-04-03T15:15:49;8.60;;;2.90;;
57341;SDS011;43175;51.002;18.316;2023-04-03T15:18:16;9.40;;;3.20;;
57341;SDS011;43175;51.002;18.316;2023-04-03T15:20:44;10.60;;;3.40;;
57341;SDS011;43175;51.002;18.316;2023-04-03T15:23:11;9.50;;;3.30;;
57341;SDS011;43175;51.002;18.316;2023-04-03T15:25:37;10.90;;;3.30;;
57341;SDS011;43175;51.002;18.316;2023-04-03T15:28:04;10.50;;;3.60;;
57341;SDS011;43175;51.002;18.316;2023-04-03T15:30:31;14.10;;;5.30;;
57341;SDS011;43175;51.002;18.316;2023-04-03T15:32:56;10.20;;;3.10;;
57341;SDS011;43175;51.002;18.316;2023-04-03T15:35:22;9.30;;;3.40;;
57341;SDS011;43175;51.002;18.316;2023-04-03T15:37:48;10.50;;;3.60;;
57341;SDS011;43175;51.002;18.316;2023-04-03T15:40:14;10.30;;;3.20;;
57341;SDS011;43175;51.002;18.316;2023-04-03T15:42:39;9.20;;;3.40;;
57341;SDS011;43175;51.002;18.316;2023-04-03T15:45:05;11.70;;;3.50;;
57341;SDS011;43175;51.002;18.316;2023-04-03T15:47:32;9.60;;;3.10;;
57341;SDS011;43175;51.002;18.316;2023-04-03T15:49:58;9.20;;;3.10;;
57341;SDS011;43175;51.002;18.316;2023-04-03T15:52:23;9.10;;;3.20;;
57341;SDS011;43175;51.002;18.316;2023-04-03T15:54:49;10.30;;;3.00;;
57341;SDS011;43175;51.002;18.316;2023-04-03T15:57:14;9.40;;;3.20;;
57341;SDS011;43175;51.002;18.316;2023-04-03T15:59:40;9.00;;;3.20;;